createdAt,value
2023-03-01T02:09:17.361Z,47.68
2023-03-01T02:10:17.395Z,48.54
2023-03-01T02:11:17.362Z,46.91
2023-03-01T02:12:17.380Z,47.88
2023-03-01T02:13:17.343Z,47.82
2023-03-01T02:14:17.398Z,47.65
2023-03-01T02:15:17.323Z,47.45
2023-03-01T02:16:17.499Z,47.29
2023-03-01T02:17:17.303Z,47.26
2023-03-01T02:18:18.492Z,47.18
2023-03-01T02:19:18.442Z,48.23
2023-03-01T02:20:18.420Z,46.83
2023-03-01T02:21:18.448Z,47.07
2023-03-01T02:22:19.254Z,46.10
2023-03-01T02:23:18.404Z,46.18
2023-03-01T02:24:20.226Z,46.68
2023-03-01T02:25:19.414Z,48.10
2023-03-01T02:26:18.386Z,48.50
2023-03-01T02:27:18.372Z,47.93
2023-03-01T02:28:18.420Z,47.07
2023-03-01T02:29:18.436Z,47.01
2023-03-01T02:30:18.385Z,47.01
2023-03-01T02:31:18.384Z,47.09
2023-03-01T02:32:18.390Z,47.80
2023-03-01T02:33:18.346Z,47.80
2023-03-01T02:34:18.349Z,46.99
2023-03-01T02:35:18.383Z,47.10
2023-03-01T02:36:18.330Z,47.72
2023-03-01T02:37:18.350Z,49.95
2023-03-01T02:38:18.391Z,47.66
2023-03-01T02:39:18.328Z,45.92
2023-03-01T02:40:18.421Z,46.14
2023-03-01T02:41:18.291Z,46.75
2023-03-01T02:42:18.294Z,47.18
2023-03-01T02:43:18.302Z,47.72
2023-03-01T02:44:18.337Z,47.75
2023-03-01T02:45:18.297Z,48.81
2023-03-01T02:46:18.384Z,48.36
2023-03-01T02:47:18.261Z,47.59
2023-03-01T02:48:18.264Z,47.32
2023-03-01T02:49:18.241Z,47.34
2023-03-01T02:50:18.282Z,47.33
2023-03-01T02:51:18.283Z,46.96
2023-03-01T02:52:18.226Z,47.86
2023-03-01T02:53:18.234Z,49.41
2023-03-01T02:54:18.194Z,46.54
2023-03-01T02:55:18.246Z,46.66
2023-03-01T02:56:18.218Z,47.81
2023-03-01T02:57:18.207Z,48.08
2023-03-01T02:58:18.207Z,49.48
2023-03-01T02:59:18.185Z,48.21
2023-03-01T03:00:18.183Z,46.07
2023-03-01T03:01:18.251Z,47.27
2023-03-01T03:02:18.186Z,47.19
2023-03-01T03:03:18.154Z,47.96
2023-03-01T03:04:18.172Z,47.45
2023-03-01T03:05:18.194Z,46.95
2023-03-01T03:06:18.120Z,47.12
2023-03-01T03:07:18.135Z,47.79
2023-03-01T03:08:18.153Z,47.22
2023-03-01T03:09:18.097Z,47.32
2023-03-01T03:10:18.138Z,45.85
2023-03-01T03:11:18.107Z,46.02
2023-03-01T03:12:18.120Z,45.49
2023-03-01T03:13:18.075Z,46.26
2023-03-01T03:14:18.102Z,47.02
2023-03-01T03:15:18.070Z,47.72
2023-03-01T03:16:18.162Z,48.19
2023-03-01T03:17:18.041Z,48.12
2023-03-01T03:18:18.051Z,46.12
2023-03-01T03:19:18.071Z,48.17
2023-03-01T03:20:18.078Z,46.77
2023-03-01T03:21:18.038Z,45.73
2023-03-01T03:22:18.068Z,46.14
2023-03-01T03:23:18.047Z,46.61
2023-03-01T03:24:18.012Z,47.82
2023-03-01T03:25:18.030Z,50.29
2023-03-01T03:26:18.073Z,48.33
2023-03-01T03:27:18.014Z,47.11
2023-03-01T03:28:18.000Z,46.81
2023-03-01T03:29:17.977Z,48.37
2023-03-01T03:30:17.995Z,47.68
2023-03-01T03:31:17.981Z,49.32
2023-03-01T03:32:17.975Z,48.00
2023-03-01T03:33:17.951Z,48.47
2023-03-01T03:34:17.975Z,47.54
2023-03-01T03:35:17.961Z,49.72
2023-03-01T03:36:17.967Z,49.10
2023-03-01T03:37:17.929Z,49.44
2023-03-01T03:38:17.983Z,46.44
2023-03-01T03:39:20.578Z,48.33
2023-03-01T03:40:17.917Z,50.11
2023-03-01T03:41:17.918Z,47.95
2023-03-01T03:42:17.903Z,48.48
2023-03-01T03:43:17.918Z,50.74
2023-03-01T03:44:17.886Z,49.19
2023-03-01T03:45:17.885Z,49.88
2023-03-01T03:46:17.871Z,49.54
2023-03-01T03:47:18.068Z,47.99
2023-03-01T03:48:17.848Z,49.61
2023-03-01T03:49:17.851Z,49.99
2023-03-01T03:50:17.861Z,49.77
2023-03-01T03:51:17.836Z,50.28
2023-03-01T03:52:17.824Z,48.45
2023-03-01T03:53:17.853Z,49.09
2023-03-01T03:54:17.818Z,47.26
2023-03-01T03:55:17.842Z,47.94
2023-03-01T03:56:17.820Z,47.42
2023-03-01T03:57:17.967Z,47.66
2023-03-01T03:58:17.813Z,48.18
2023-03-01T03:59:17.767Z,48.28
2023-03-01T04:00:17.827Z,47.10
2023-03-01T04:01:17.810Z,46.47
2023-03-01T04:02:17.786Z,47.94
2023-03-01T04:03:17.761Z,47.45
2023-03-01T04:04:17.740Z,47.85
2023-03-01T04:05:17.748Z,49.29
2023-03-01T04:06:17.768Z,49.97
2023-03-01T04:07:17.749Z,48.32
2023-03-01T04:08:17.715Z,49.12
2023-03-01T04:09:17.704Z,48.30
2023-03-01T04:10:18.247Z,51.04
2023-03-01T04:11:17.707Z,50.01
2023-03-01T04:12:17.688Z,50.29
2023-03-01T04:13:17.717Z,49.97
2023-03-01T04:14:17.666Z,47.10
2023-03-01T04:15:17.699Z,46.43
2023-03-01T04:16:17.734Z,49.57
2023-03-01T04:17:17.689Z,47.74
2023-03-01T04:18:17.638Z,48.12
2023-03-01T04:19:17.641Z,48.30
2023-03-01T04:20:17.679Z,48.51
2023-03-01T04:21:17.641Z,49.87
2023-03-01T04:22:17.631Z,50.22
2023-03-01T04:23:18.611Z,49.16
2023-03-01T04:24:17.601Z,48.27
2023-03-01T04:25:17.630Z,49.39
2023-03-01T04:26:17.606Z,49.13
2023-03-01T04:27:17.625Z,50.49
2023-03-01T04:28:17.620Z,51.05
2023-03-01T04:29:17.581Z,49.38
2023-03-01T04:30:17.602Z,51.68
2023-03-01T04:31:17.707Z,49.86
2023-03-01T04:32:17.738Z,50.05
2023-03-01T04:33:17.565Z,49.58
2023-03-01T04:34:17.538Z,49.29
2023-03-01T04:35:17.562Z,48.68
2023-03-01T04:36:17.672Z,49.52
2023-03-01T04:37:17.529Z,50.72
2023-03-01T04:38:17.528Z,51.17
2023-03-01T04:39:17.502Z,50.21
2023-03-01T04:40:17.533Z,49.67
2023-03-01T04:41:17.498Z,49.56
2023-03-01T04:42:17.503Z,51.27
2023-03-01T04:43:17.653Z,51.16
2023-03-01T04:44:17.564Z,49.33
2023-03-01T04:45:17.637Z,50.35
2023-03-01T04:46:17.540Z,49.29
2023-03-01T04:47:17.478Z,49.34
2023-03-01T04:48:17.459Z,49.18
2023-03-01T04:49:17.459Z,49.70
2023-03-01T04:50:17.452Z,50.27
2023-03-01T04:51:17.460Z,49.07
2023-03-01T04:52:17.444Z,50.64
2023-03-01T04:53:17.644Z,52.12
2023-03-01T04:54:17.431Z,49.03
2023-03-01T04:55:17.433Z,48.05
2023-03-01T04:56:17.419Z,51.45
2023-03-01T04:57:17.415Z,50.72
2023-03-01T04:58:18.216Z,48.86
2023-03-01T04:59:17.377Z,49.28
2023-03-01T05:00:17.427Z,49.80
2023-03-01T05:01:18.100Z,49.59
2023-03-01T05:02:17.386Z,48.97
2023-03-01T05:03:17.371Z,52.26
2023-03-01T05:04:17.410Z,49.20
2023-03-01T05:05:17.372Z,50.17
2023-03-01T05:06:17.366Z,49.92
2023-03-01T05:07:17.344Z,48.97
2023-03-01T05:08:17.329Z,49.93
2023-03-01T05:09:17.320Z,51.71
2023-03-01T05:10:17.295Z,50.18
2023-03-01T05:11:17.318Z,48.88
2023-03-01T05:12:17.319Z,49.77
2023-03-01T05:13:17.285Z,49.93
2023-03-01T05:14:17.289Z,49.01
2023-03-01T05:15:17.306Z,49.54
2023-03-01T05:16:17.350Z,50.88
2023-03-01T05:17:17.257Z,48.94
2023-03-01T05:18:17.283Z,49.97
2023-03-01T05:19:17.262Z,50.58
2023-03-01T05:20:17.249Z,49.32
2023-03-01T05:21:17.538Z,50.10
2023-03-01T05:22:17.235Z,50.98
2023-03-01T05:23:17.253Z,49.62
2023-03-01T05:24:17.254Z,50.39
2023-03-01T05:25:17.245Z,50.05
2023-03-01T05:26:27.887Z,49.89
2023-03-01T05:27:19.277Z,51.22
2023-03-01T05:28:17.305Z,50.16
2023-03-01T05:29:17.234Z,51.43
2023-03-01T05:30:17.211Z,49.82
2023-03-01T05:31:17.268Z,50.88
2023-03-01T05:32:17.315Z,51.72
2023-03-01T05:33:17.196Z,51.70
2023-03-01T05:34:17.169Z,51.52
2023-03-01T05:35:17.211Z,51.75
2023-03-01T05:36:17.181Z,53.81
2023-03-01T05:37:17.188Z,51.55
2023-03-01T05:38:17.230Z,51.96
2023-03-01T05:39:17.168Z,50.70
2023-03-01T05:40:17.172Z,51.76
2023-03-01T05:41:17.187Z,52.70
2023-03-01T05:42:17.189Z,53.29
2023-03-01T05:43:17.145Z,52.97
2023-03-01T05:44:17.120Z,54.18
2023-03-01T05:45:17.141Z,53.00
2023-03-01T05:46:17.197Z,53.32
2023-03-01T05:47:17.125Z,53.21
2023-03-01T05:48:17.120Z,52.06
2023-03-01T05:49:17.060Z,51.41
2023-03-01T05:50:18.089Z,52.61
2023-03-01T05:51:17.097Z,51.36
2023-03-01T05:52:17.078Z,53.84
2023-03-01T05:53:17.069Z,51.59
2023-03-01T05:54:17.100Z,51.65
2023-03-01T05:55:17.086Z,51.46
2023-03-01T05:56:17.080Z,52.15
2023-03-01T05:57:17.076Z,51.91
2023-03-01T05:58:17.061Z,52.73
2023-03-01T05:59:17.030Z,52.30
2023-03-01T06:00:17.051Z,52.14
2023-03-01T06:01:17.036Z,53.06
2023-03-01T06:02:17.028Z,53.94
2023-03-01T06:03:16.999Z,52.40
2023-03-01T06:04:17.011Z,51.88
2023-03-01T06:05:17.050Z,52.64
2023-03-01T06:06:17.048Z,51.78
2023-03-01T06:07:17.056Z,52.99
2023-03-01T06:08:16.976Z,52.74
2023-03-01T06:09:16.979Z,52.62
2023-03-01T06:10:16.959Z,53.44
2023-03-01T06:11:17.013Z,52.77
2023-03-01T06:12:16.979Z,51.58
2023-03-01T06:13:16.956Z,51.70
2023-03-01T06:14:16.914Z,50.73
2023-03-01T06:15:19.226Z,51.48
2023-03-01T06:16:17.015Z,50.67
2023-03-01T06:17:16.923Z,51.77
2023-03-01T06:18:16.941Z,52.32
2023-03-01T06:19:16.915Z,52.45
2023-03-01T06:20:17.785Z,53.48
2023-03-01T06:21:16.919Z,52.70
2023-03-01T06:22:16.905Z,51.59
2023-03-01T06:23:16.910Z,51.37
2023-03-01T06:24:17.043Z,53.76
2023-03-01T06:25:16.904Z,52.37
2023-03-01T06:26:16.878Z,51.58
2023-03-01T06:27:16.856Z,51.19
2023-03-01T06:28:16.845Z,52.85
2023-03-01T06:29:16.846Z,53.58
2023-03-01T06:30:16.862Z,52.80
2023-03-01T06:31:16.905Z,52.56
2023-03-01T06:32:16.918Z,52.93
2023-03-01T06:33:16.842Z,53.40
2023-03-01T06:34:16.885Z,54.09
2023-03-01T06:35:16.812Z,53.06
2023-03-01T06:36:16.823Z,53.48
2023-03-01T06:37:16.775Z,52.86
2023-03-01T06:38:16.898Z,52.14
2023-03-01T06:39:16.777Z,52.95
2023-03-01T06:40:17.082Z,51.19
2023-03-01T06:41:16.781Z,52.98
2023-03-01T06:42:16.756Z,52.72
2023-03-01T06:43:17.736Z,52.04
2023-03-01T06:44:16.775Z,53.42
2023-03-01T06:45:16.745Z,53.83
2023-03-01T06:46:16.845Z,52.93
2023-03-01T06:47:16.754Z,53.15
2023-03-01T06:48:16.769Z,52.31
2023-03-01T06:49:16.713Z,53.80
2023-03-01T06:50:16.767Z,52.83
2023-03-01T06:51:16.713Z,53.48
2023-03-01T06:52:17.714Z,53.45
2023-03-01T06:53:16.703Z,53.12
2023-03-01T06:54:16.704Z,53.04
2023-03-01T06:55:16.676Z,53.99
2023-03-01T06:56:17.718Z,52.85
2023-03-01T06:57:16.743Z,52.81
2023-03-01T06:58:16.643Z,51.06
2023-03-01T06:59:16.663Z,51.31
2023-03-01T07:00:16.637Z,52.57
2023-03-01T07:01:16.762Z,53.21
2023-03-01T07:02:16.623Z,53.50
2023-03-01T07:03:16.657Z,52.19
2023-03-01T07:04:16.607Z,53.72
2023-03-01T07:05:16.692Z,52.21
2023-03-01T07:06:16.616Z,50.46
2023-03-01T07:07:16.604Z,52.21
2023-03-01T07:08:16.600Z,53.70
2023-03-01T07:09:16.626Z,51.87
2023-03-01T07:10:16.614Z,51.47
2023-03-01T07:11:16.586Z,51.77
2023-03-01T07:12:16.572Z,57.50
2023-03-01T07:13:16.533Z,51.40
2023-03-01T07:14:16.538Z,50.99
2023-03-01T07:15:16.548Z,50.54
2023-03-01T07:16:16.581Z,51.19
2023-03-01T07:17:16.544Z,49.68
2023-03-01T07:18:16.502Z,52.20
2023-03-01T07:19:16.505Z,51.63
2023-03-01T07:20:16.505Z,50.67
2023-03-01T07:21:16.502Z,50.28
2023-03-01T07:22:16.529Z,50.47
2023-03-01T07:23:16.492Z,50.64
2023-03-01T07:24:16.495Z,52.59
2023-03-01T07:25:16.554Z,49.88
2023-03-01T07:26:16.476Z,50.31
2023-03-01T07:27:16.459Z,49.63
2023-03-01T07:28:21.488Z,50.00
2023-03-01T07:29:16.457Z,49.61
2023-03-01T07:30:16.465Z,50.83
2023-03-01T07:31:16.454Z,50.64
2023-03-01T07:32:16.499Z,50.08
2023-03-01T07:33:16.514Z,50.91
2023-03-01T07:34:16.416Z,50.57
2023-03-01T07:35:16.409Z,50.06
2023-03-01T07:36:16.414Z,50.70
2023-03-01T07:37:16.378Z,51.24
2023-03-01T07:38:16.413Z,50.32
2023-03-01T07:39:18.058Z,50.23
2023-03-01T07:40:16.373Z,50.59
2023-03-01T07:41:16.361Z,50.52
2023-03-01T07:42:16.361Z,50.81
2023-03-01T07:43:16.356Z,50.28
2023-03-01T07:44:16.376Z,49.34
2023-03-01T07:45:16.349Z,50.36
2023-03-01T07:46:16.375Z,49.08
2023-03-01T07:47:16.322Z,49.31
2023-03-01T07:48:16.309Z,50.40
2023-03-01T07:49:16.333Z,50.99
2023-03-01T07:50:17.161Z,50.16
2023-03-01T07:51:16.297Z,49.92
2023-03-01T07:52:16.272Z,49.90
2023-03-01T07:53:16.282Z,49.45
2023-03-01T07:54:17.284Z,50.77
2023-03-01T07:55:16.276Z,50.36
2023-03-01T07:56:16.292Z,51.27
2023-03-01T07:57:16.277Z,50.43
2023-03-01T07:58:16.326Z,49.94
2023-03-01T07:59:16.249Z,49.70
2023-03-01T08:00:16.239Z,57.28
2023-03-01T08:01:16.290Z,63.66
2023-03-01T08:02:16.229Z,63.19
2023-03-01T08:03:17.081Z,62.17
2023-03-01T08:04:16.198Z,60.81
2023-03-01T08:05:16.220Z,57.30
2023-03-01T08:06:16.216Z,56.05
2023-03-01T08:07:16.199Z,54.49
2023-03-01T08:08:17.492Z,50.59
2023-03-01T08:09:16.188Z,51.18
